Time;durP1;ratioP1;P1;durP2;ratioP2;P2;SDS_P1;SDS_P2;PMS_P1;PMS_P2;Temp;Humidity;BMP_temperature;BMP_pressure;BME280_temperature;BME280_humidity;BME280_pressure;Samples;Min_cycle;Max_cycle;Signal;HPM_P1;HPM_P2
2021/04/13 00:00:28;;;;;;;5.63;4.28;;;15.40;47.90;;;;;;6213682;23;20027;-74
2021/04/13 00:02:55;;;;;;;5.88;4.40;;;15.40;47.90;;;;;;6213068;23;20328;-74
2021/04/13 00:05:31;;;;;;;7.15;4.30;;;15.40;47.90;;;;;;6213470;23;20011;-72
2021/04/13 00:08:00;;;;;;;5.10;4.20;;;15.40;47.90;;;;;;6213638;23;20043;-72
2021/04/13 00:10:34;;;;;;;5.80;4.25;;;15.30;47.80;;;;;;6213572;23;20484;-72
2021/04/13 00:13:00;;;;;;;5.45;4.30;;;15.30;47.80;;;;;;6213665;23;19996;-72
2021/04/13 00:15:39;;;;;;;5.72;4.10;;;15.30;47.80;;;;;;6213523;23;20453;-72
2021/04/13 00:18:05;;;;;;;6.13;4.60;;;15.30;47.90;;;;;;6213990;23;20031;-72
2021/04/13 00:21:14;;;;;;;7.88;4.32;;;15.20;47.80;;;;;;6213560;23;20043;-72
2021/04/13 00:23:40;;;;;;;7.80;4.80;;;15.20;47.90;;;;;;6171506;23;20088;-72
2021/04/13 00:26:09;;;;;;;6.28;4.78;;;15.20;47.80;;;;;;6213390;23;20433;-72
2021/04/13 00:28:46;;;;;;;6.70;4.85;;;15.20;47.90;;;;;;6213579;23;20004;-72
2021/04/13 00:31:38;;;;;;;8.93;4.97;;;15.20;47.80;;;;;;6186372;23;20080;-72
2021/04/13 00:34:04;;;;;;;5.88;4.60;;;15.20;47.90;;;;;;6187048;23;20015;-72
2021/04/13 00:36:30;;;;;;;6.85;5.00;;;15.20;47.90;;;;;;6213094;23;20007;-72
2021/04/13 00:38:55;;;;;;;8.43;4.32;;;15.10;47.80;;;;;;6213561;23;20013;-72
2021/04/13 00:41:27;;;;;;;7.35;5.07;;;15.10;47.80;;;;;;6213526;23;19997;-72
2021/04/13 00:43:57;;;;;;;6.60;4.65;;;15.10;47.80;;;;;;6213343;23;20005;-72
2021/04/13 00:46:28;;;;;;;6.68;4.80;;;15.00;47.80;;;;;;6213351;23;20005;-72
2021/04/13 00:48:59;;;;;;;6.82;4.65;;;15.00;47.80;;;;;;6186406;23;20374;-72
2021/04/13 00:51:31;;;;;;;6.72;4.78;;;15.00;47.90;;;;;;6213539;23;20456;-75
2021/04/13 00:54:11;;;;;;;6.75;5.28;;;15.00;47.80;;;;;;6213432;23;20009;-74
2021/04/13 00:56:38;;;;;;;9.27;5.32;;;15.00;47.80;;;;;;6213693;23;20001;-74
2021/04/13 00:59:11;;;;;;;9.25;5.05;;;15.00;47.90;;;;;;6213703;23;20000;-74
2021/04/13 01:01:41;;;;;;;7.95;4.82;;;14.90;47.70;;;;;;6213352;23;20338;-74
2021/04/13 01:04:15;;;;;;;9.00;5.38;;;14.90;47.80;;;;;;6213496;23;20008;-73
2021/04/13 01:06:41;;;;;;;7.22;4.95;;;14.90;47.80;;;;;;6213459;23;20008;-73
2021/04/13 01:09:19;;;;;;;5.93;4.32;;;14.90;47.80;;;;;;6213589;23;20139;-74
2021/04/13 01:11:57;;;;;;;7.82;4.65;;;14.90;47.70;;;;;;6213273;23;20039;-74
2021/04/13 01:14:26;;;;;;;10.02;5.65;;;14.90;47.70;;;;;;6213801;23;20080;-73
2021/04/13 01:16:56;;;;;;;7.70;4.88;;;14.80;47.70;;;;;;6214867;23;20005;-74
2021/04/13 01:19:28;;;;;;;6.97;5.45;;;14.80;47.70;;;;;;6215090;23;20448;-73
2021/04/13 01:22:14;;;;;;;6.82;4.93;;;14.80;47.70;;;;;;6214874;23;20385;-73
2021/04/13 01:24:51;;;;;;;7.35;5.40;;;14.80;47.70;;;;;;6214673;23;20013;-73
2021/04/13 01:27:20;;;;;;;8.07;5.43;;;14.80;47.70;;;;;;6188283;23;20004;-74
2021/04/13 01:29:47;;;;;;;7.22;5.00;;;14.70;47.70;;;;;;6214979;23;20345;-73
2021/04/13 01:32:14;;;;;;;7.07;5.00;;;14.70;47.70;;;;;;6214607;23;19996;-73
2021/04/13 01:34:50;;;;;;;7.53;5.07;;;14.70;47.70;;;;;;6214721;23;20159;-74
2021/04/13 01:38:01;;;;;;;6.70;4.97;;;14.70;47.60;;;;;;6188113;23;20445;-74
2021/04/13 01:40:44;;;;;;;6.82;4.80;;;14.70;47.60;;;;;;6214816;23;20009;-74
2021/04/13 01:43:11;;;;;;;7.55;5.28;;;14.70;47.60;;;;;;6188003;23;20008;-74
2021/04/13 01:45:39;;;;;;;7.47;4.75;;;14.70;47.60;;;;;;6188500;23;20009;-73
2021/04/13 01:48:07;;;;;;;7.00;4.78;;;14.70;47.60;;;;;;6215013;23;20001;-73
2021/04/13 01:50:38;;;;;;;7.55;5.30;;;14.60;47.60;;;;;;6187942;23;20008;-74
2021/04/13 01:53:17;;;;;;;9.02;4.95;;;14.60;47.60;;;;;;6214660;23;20433;-73
2021/04/13 01:55:55;;;;;;;6.78;4.97;;;14.60;47.60;;;;;;6214678;23;20011;-73
2021/04/13 01:58:44;;;;;;;6.68;4.93;;;14.60;47.60;;;;;;6214705;23;20412;-73
2021/04/13 02:01:33;;;;;;;6.53;4.88;;;14.60;47.60;;;;;;6214993;23;20004;-73
2021/04/13 02:04:05;;;;;;;6.85;5.00;;;14.50;47.50;;;;;;6214345;23;20345;-73
2021/04/13 02:07:25;;;;;;;7.85;4.97;;;14.50;47.60;;;;;;6214699;23;20015;-73
2021/04/13 02:09:55;;;;;;;6.38;5.05;;;14.50;47.60;;;;;;6210552;23;20063;-73
2021/04/13 02:12:25;;;;;;;7.43;5.10;;;14.40;47.60;;;;;;6214490;23;20051;-73
2021/04/13 02:15:24;;;;;;;7.07;5.25;;;14.50;47.60;;;;;;6215047;23;20076;-73
2021/04/13 02:17:59;;;;;;;8.05;5.60;;;14.50;47.60;;;;;;6214191;23;20043;-74
2021/04/13 02:20:32;;;;;;;7.88;4.75;;;14.40;47.60;;;;;;6214467;23;20004;-74
2021/04/13 02:22:59;;;;;;;6.88;5.55;;;14.40;47.50;;;;;;6214150;23;20001;-73
2021/04/13 02:25:30;;;;;;;6.05;4.85;;;14.40;47.60;;;;;;6214306;23;20004;-74
2021/04/13 02:27:58;;;;;;;6.57;4.95;;;14.40;48.10;;;;;;6214303;23;20433;-74
2021/04/13 02:30:46;;;;;;;6.80;4.75;;;14.40;47.60;;;;;;6214113;23;20005;-73
2021/04/13 02:33:18;;;;;;;7.68;5.32;;;14.40;47.50;;;;;;6215019;23;20024;-73
2021/04/13 02:35:45;;;;;;;6.72;4.60;;;14.30;47.50;;;;;;6214426;23;20005;-73
2021/04/13 02:38:15;;;;;;;8.60;5.45;;;14.30;47.50;;;;;;6214354;23;20444;-74
2021/04/13 02:41:15;;;;;;;6.38;4.90;;;14.30;47.50;;;;;;6214494;23;20437;-74
2021/04/13 02:43:46;;;;;;;8.38;4.78;;;14.30;47.50;;;;;;6214351;23;20066;-74
2021/04/13 02:46:20;;;;;;;6.68;4.85;;;14.30;47.50;;;;;;6214628;23;20332;-74
2021/04/13 02:49:01;;;;;;;7.78;5.65;;;14.30;47.40;;;;;;6214342;23;20059;-73
2021/04/13 02:51:28;;;;;;;7.43;5.25;;;14.30;47.40;;;;;;6214045;23;20396;-74
2021/04/13 02:53:56;;;;;;;7.82;4.88;;;14.30;47.50;;;;;;6214019;23;20005;-74
2021/04/13 02:56:32;;;;;;;7.40;5.55;;;14.30;47.50;;;;;;6214028;23;20349;-73
2021/04/13 02:59:13;;;;;;;8.38;5.50;;;14.20;47.40;;;;;;6214089;23;20004;-73
2021/04/13 03:01:54;;;;;;;5.93;4.55;;;14.20;47.40;;;;;;6214149;23;20426;-74
2021/04/13 03:04:21;;;;;;;7.15;4.97;;;14.20;47.40;;;;;;6213976;23;20113;-73
2021/04/13 03:06:50;;;;;;;7.05;5.40;;;14.20;47.40;;;;;;6213964;23;20000;-74
2021/04/13 03:09:18;;;;;;;6.85;4.78;;;14.20;47.40;;;;;;6214082;23;20005;-73
2021/04/13 03:12:00;;;;;;;7.05;5.35;;;14.20;47.40;;;;;;6214103;23;20005;-73
2021/04/13 03:14:32;;;;;;;6.97;5.35;;;14.20;47.40;;;;;;6213943;23;20011;-74
2021/04/13 03:16:58;;;;;;;6.40;4.35;;;14.10;47.40;;;;;;6213715;23;19997;-73
2021/04/13 03:19:27;;;;;;;7.45;5.15;;;14.10;47.40;;;;;;6214028;23;20012;-73
2021/04/13 03:21:55;;;;;;;6.97;5.00;;;14.10;47.40;;;;;;6213897;23;20012;-73
2021/04/13 03:24:25;;;;;;;6.57;4.90;;;14.10;47.40;;;;;;6213809;23;20330;-73
2021/04/13 03:26:56;;;;;;;6.95;5.20;;;14.10;47.40;;;;;;6213940;23;19996;-73
2021/04/13 03:29:27;;;;;;;7.25;5.03;;;14.10;47.40;;;;;;6213748;23;20055;-73
2021/04/13 03:31:54;;;;;;;7.00;4.75;;;14.00;47.40;;;;;;6213831;23;20452;-73
2021/04/13 03:34:22;;;;;;;6.90;4.97;;;14.00;47.30;;;;;;6213853;23;20012;-74
2021/04/13 03:36:48;;;;;;;5.78;5.00;;;14.10;47.40;;;;;;6213593;23;20008;-74
2021/04/13 03:39:26;;;;;;;14.52;4.85;;;14.00;47.40;;;;;;6213723;23;20005;-73
2021/04/13 03:41:53;;;;;;;9.05;5.68;;;14.00;47.30;;;;;;6213727;23;20000;-73
2021/04/13 03:44:19;;;;;;;7.20;4.80;;;14.00;47.30;;;;;;6213736;23;20019;-73
2021/04/13 03:46:46;;;;;;;7.85;5.65;;;14.00;47.30;;;;;;6214181;23;20000;-73
2021/04/13 03:49:30;;;;;;;7.45;5.15;;;14.00;47.30;;;;;;6214014;23;20000;-73
2021/04/13 03:52:04;;;;;;;7.07;5.88;;;14.00;47.30;;;;;;6213703;23;19998;-73
2021/04/13 03:54:35;;;;;;;7.15;5.28;;;14.00;47.40;;;;;;6213515;23;20004;-73
2021/04/13 03:57:01;;;;;;;7.15;5.05;;;14.00;47.40;;;;;;6186631;23;20043;-73
2021/04/13 03:59:30;;;;;;;10.18;5.60;;;13.90;47.30;;;;;;6213743;23;20341;-73
2021/04/13 04:01:56;;;;;;;6.82;5.28;;;13.90;47.30;;;;;;6213514;23;20027;-73
2021/04/13 04:04:21;;;;;;;8.45;5.45;;;13.90;47.30;;;;;;6213457;23;20450;-73
2021/04/13 04:07:04;;;;;;;7.22;5.68;;;13.90;47.40;;;;;;6213486;23;20001;-73
2021/04/13 04:09:30;;;;;;;8.02;5.57;;;13.90;47.90;;;;;;6213765;23;20008;-73
2021/04/13 04:11:59;;;;;;;9.20;5.32;;;13.90;47.40;;;;;;6213571;23;20004;-73
2021/04/13 04:14:27;;;;;;;7.18;5.30;;;13.90;47.40;;;;;;6213567;23;20004;-73
2021/04/13 04:17:06;;;;;;;8.13;5.75;;;13.90;47.40;;;;;;6213367;23;20004;-73
2021/04/13 04:19:32;;;;;;;6.30;4.55;;;13.80;47.40;;;;;;6213383;23;20025;-73
2021/04/13 04:22:14;;;;;;;7.35;5.28;;;13.80;47.40;;;;;;6213689;23;20005;-73
2021/04/13 04:24:42;;;;;;;6.57;4.82;;;13.80;47.40;;;;;;6213539;23;20013;-73
2021/04/13 04:27:16;;;;;;;9.68;5.80;;;13.80;47.40;;;;;;6186869;23;20037;-73
2021/04/13 04:29:46;;;;;;;6.18;5.00;;;13.80;47.40;;;;;;6213258;23;20079;-73
2021/04/13 04:32:27;;;;;;;7.72;5.97;;;13.80;47.40;;;;;;6213543;23;20005;-73
2021/04/13 04:34:54;;;;;;;7.90;5.70;;;13.80;47.50;;;;;;6213471;23;20001;-73
2021/04/13 04:37:32;;;;;;;8.70;5.13;;;13.80;47.40;;;;;;6213522;23;20019;-73
2021/04/13 04:40:19;;;;;;;7.30;5.15;;;13.80;47.50;;;;;;6213432;23;20000;-74
2021/04/13 04:42:51;;;;;;;7.70;4.95;;;13.70;47.40;;;;;;6213861;23;20001;-73
2021/04/13 04:45:32;;;;;;;5.68;4.63;;;13.70;47.40;;;;;;6213710;23;20015;-73
2021/04/13 04:47:58;;;;;;;7.13;5.43;;;13.70;47.40;;;;;;6213457;23;20028;-73
2021/04/13 04:50:23;;;;;;;6.63;5.13;;;13.70;47.40;;;;;;6214773;23;20000;-73
2021/04/13 04:52:49;;;;;;;7.32;4.75;;;13.70;47.30;;;;;;6215112;23;19997;-73
2021/04/13 04:55:15;;;;;;;7.45;4.78;;;13.70;47.40;;;;;;6215791;23;20001;-73
2021/04/13 04:57:42;;;;;;;6.88;5.15;;;13.70;47.30;;;;;;6215294;23;20008;-73
2021/04/13 05:00:08;;;;;;;7.68;5.10;;;13.70;47.30;;;;;;6214953;23;20004;-74
2021/04/13 05:02:34;;;;;;;7.53;5.00;;;13.70;47.40;;;;;;6215052;23;20008;-73
2021/04/13 05:05:00;;;;;;;7.38;5.50;;;13.70;47.40;;;;;;6215062;23;20008;-73
2021/04/13 05:07:26;;;;;;;11.45;5.70;;;13.70;47.40;;;;;;6215040;23;20024;-73
2021/04/13 05:09:52;;;;;;;8.02;4.90;;;13.70;47.40;;;;;;6215557;23;20440;-73
2021/04/13 05:12:17;;;;;;;5.70;5.05;;;13.60;47.40;;;;;;6215396;23;20425;-73
2021/04/13 05:14:43;;;;;;;8.65;5.75;;;13.60;47.40;;;;;;6215240;23;20051;-74
2021/04/13 05:17:09;;;;;;;8.73;5.20;;;13.60;47.40;;;;;;6215117;23;20027;-73
2021/04/13 05:19:34;;;;;;;8.98;5.03;;;13.60;47.40;;;;;;6215059;23;19997;-73
2021/04/13 05:22:00;;;;;;;6.43;4.97;;;13.60;47.40;;;;;;6214856;23;20028;-73
2021/04/13 05:24:26;;;;;;;7.72;5.47;;;13.60;47.40;;;;;;6215070;23;20445;-73
2021/04/13 05:26:51;;;;;;;7.97;5.60;;;13.60;47.40;;;;;;6215192;23;20071;-73
2021/04/13 05:29:17;;;;;;;8.25;5.68;;;13.60;47.40;;;;;;6215260;23;20071;-73
2021/04/13 05:31:43;;;;;;;8.13;5.47;;;13.50;47.30;;;;;;6214507;23;20441;-73
2021/04/13 05:34:09;;;;;;;9.75;5.85;;;13.60;47.40;;;;;;6214976;23;20457;-74
2021/04/13 05:36:37;;;;;;;8.98;5.65;;;13.50;47.30;;;;;;6214611;23;20000;-73
2021/04/13 05:39:04;;;;;;;7.53;5.28;;;13.50;47.30;;;;;;6215025;23;20315;-74
2021/04/13 05:41:29;;;;;;;8.48;5.72;;;13.50;47.30;;;;;;6214748;23;20000;-73
2021/04/13 05:43:55;;;;;;;7.80;5.80;;;13.50;47.30;;;;;;6214777;23;20005;-73
2021/04/13 05:46:25;;;;;;;9.38;5.57;;;13.50;47.30;;;;;;6214684;23;20075;-74
2021/04/13 05:48:55;;;;;;;10.07;5.68;;;13.50;47.30;;;;;;6187623;23;20012;-75
2021/04/13 05:51:21;;;;;;;8.75;6.10;;;13.50;47.30;;;;;;6214821;23;20008;-75
2021/04/13 05:53:47;;;;;;;7.93;5.72;;;13.50;47.40;;;;;;6214258;23;20314;-77
2021/04/13 05:56:18;;;;;;;9.27;6.40;;;13.50;47.50;;;;;;6214682;23;20376;-77
2021/04/13 05:58:49;;;;;;;7.82;5.32;;;13.50;47.50;;;;;;6214726;23;20009;-77
2021/04/13 06:01:15;;;;;;;8.50;5.68;;;13.50;47.30;;;;;;6213152;23;20011;-78
2021/04/13 06:03:43;;;;;;;9.50;5.43;;;13.50;47.50;;;;;;6214337;23;20017;-77
2021/04/13 06:06:09;;;;;;;8.65;5.05;;;13.60;47.60;;;;;;6214571;23;20390;-77
2021/04/13 06:08:35;;;;;;;7.50;4.80;;;13.80;47.80;;;;;;6213296;23;20012;-78
2021/04/13 06:11:00;;;;;;;10.75;4.82;;;13.90;47.80;;;;;;6213990;23;20338;-78
2021/04/13 06:13:27;;;;;;;8.07;5.38;;;14.10;47.60;;;;;;6214447;23;19996;-74
2021/04/13 06:15:54;;;;;;;7.80;5.18;;;14.20;47.70;;;;;;6214311;23;20319;-74
2021/04/13 06:18:22;;;;;;;7.82;4.63;;;14.40;48.30;;;;;;6214100;23;20084;-74
2021/04/13 06:20:48;;;;;;;8.18;4.97;;;14.60;48.00;;;;;;6214607;23;20015;-77
2021/04/13 06:23:14;;;;;;;9.05;4.95;;;14.80;48.30;;;;;;6213821;23;20024;-76
2021/04/13 06:25:40;;;;;;;10.60;5.38;;;14.90;48.40;;;;;;6214131;23;20036;-75
2021/04/13 06:28:06;;;;;;;8.18;5.00;;;15.10;48.10;;;;;;6214256;23;20001;-77
2021/04/13 06:30:32;;;;;;;6.70;4.78;;;15.30;48.20;;;;;;6187098;23;20449;-75
2021/04/13 06:32:59;;;;;;;9.48;5.40;;;15.50;48.10;;;;;;6214030;23;20005;-76
2021/04/13 06:35:26;;;;;;;8.23;5.82;;;15.60;47.90;;;;;;6214679;23;19997;-76
2021/04/13 06:37:54;;;;;;;7.68;4.75;;;15.70;47.60;;;;;;6214417;23;20022;-77
2021/04/13 06:40:37;;;;;;;7.38;4.53;;;15.80;47.50;;;;;;6214134;23;20449;-76
2021/04/13 06:43:21;;;;;;;8.57;4.80;;;15.90;47.70;;;;;;6214189;23;20008;-77
2021/04/13 06:46:10;;;;;;;10.85;5.22;;;16.00;47.70;;;;;;6214336;23;20011;-77
2021/04/13 06:49:14;;;;;;;7.60;5.00;;;16.10;47.80;;;;;;6214318;23;20012;-76
2021/04/13 06:52:06;;;;;;;10.65;4.45;;;16.20;47.90;;;;;;6107290;23;20002;-76
2021/04/13 06:54:43;;;;;;;10.82;5.35;;;16.30;48.30;;;;;;6187630;23;20008;-77
2021/04/13 06:57:18;;;;;;;8.73;5.40;;;16.40;47.90;;;;;;6214044;23;20337;-77
2021/04/13 06:59:52;;;;;;;10.02;5.20;;;16.50;47.90;;;;;;6213879;23;20005;-77
2021/04/13 07:02:30;;;;;;;13.02;5.55;;;16.50;47.80;;;;;;6213899;23;20004;-80
2021/04/13 07:04:55;;;;;;;10.00;5.63;;;16.50;47.90;;;;;;6214118;23;20012;-78
2021/04/13 07:07:28;;;;;;;9.82;5.70;;;16.60;47.70;;;;;;6213343;23;20008;-78
2021/04/13 07:10:19;;;;;;;7.47;4.82;;;16.60;47.60;;;;;;6208189;23;20457;-79
2021/04/13 07:12:53;;;;;;;11.77;5.70;;;16.60;47.60;;;;;;6209097;23;20000;-77
2021/04/13 07:15:28;;;;;;;10.52;6.03;;;16.60;47.50;;;;;;6212043;23;20004;-78
2021/04/13 07:18:08;;;;;;;12.32;5.63;;;16.70;47.50;;;;;;6212641;23;20004;-80
2021/04/13 07:20:36;;;;;;;8.25;4.82;;;16.70;47.30;;;;;;6212459;23;20004;-77
2021/04/13 07:23:13;;;;;;;8.70;5.00;;;16.70;47.30;;;;;;6212444;23;20756;-77
2021/04/13 07:25:50;;;;;;;8.73;4.97;;;16.70;47.10;;;;;;6212992;23;20019;-79
2021/04/13 07:28:30;;;;;;;8.25;5.43;;;16.70;47.20;;;;;;6213202;23;20001;-78
2021/04/13 07:31:01;;;;;;;7.75;4.00;;;16.70;46.90;;;;;;6213113;23;20095;-78
2021/04/13 07:33:31;;;;;;;7.05;4.43;;;16.70;46.90;;;;;;6210571;23;20035;-78
2021/04/13 07:36:03;;;;;;;7.75;4.90;;;16.70;46.90;;;;;;6211544;23;20077;-80
2021/04/13 07:38:41;;;;;;;6.60;4.25;;;16.60;46.70;;;;;;6212772;23;20111;-80
2021/04/13 07:41:18;;;;;;;7.72;4.70;;;16.60;46.70;;;;;;6212476;23;19996;-80
2021/04/13 07:43:56;;;;;;;8.15;5.00;;;16.60;47.10;;;;;;6213225;23;20016;-81
2021/04/13 07:46:45;;;;;;;6.53;4.15;;;16.50;46.80;;;;;;6213580;23;20063;-80
2021/04/13 07:49:31;;;;;;;6.72;4.65;;;16.50;46.60;;;;;;6212776;23;20019;-80
2021/04/13 07:52:06;;;;;;;7.43;4.32;;;16.50;46.80;;;;;;6213798;23;20430;-73
2021/04/13 07:55:00;;;;;;;6.53;4.33;;;16.50;46.60;;;;;;6213665;23;20059;-73
2021/04/13 07:57:49;;;;;;;8.70;4.45;;;16.40;46.50;;;;;;6152716;23;20236;-74
2021/04/13 08:00:26;;;;;;;8.05;3.90;;;16.40;46.50;;;;;;6157394;23;20032;-74
2021/04/13 08:03:08;;;;;;;8.65;4.50;;;16.40;46.50;;;;;;6213771;23;20072;-74
2021/04/13 08:05:40;;;;;;;7.72;4.40;;;16.40;46.60;;;;;;6213750;23;20353;-76
2021/04/13 08:08:18;;;;;;;7.38;4.63;;;16.30;46.40;;;;;;6213622;23;20012;-76
2021/04/13 08:10:44;;;;;;;8.65;4.55;;;16.30;46.30;;;;;;6213434;23;20001;-76
2021/04/13 08:13:12;;;;;;;6.80;4.07;;;16.30;46.30;;;;;;6213537;23;20437;-75
2021/04/13 08:15:38;;;;;;;7.43;3.88;;;16.30;46.30;;;;;;6213552;23;20001;-75
2021/04/13 08:18:31;;;;;;;10.38;4.43;;;16.20;46.40;;;;;;6186975;23;20084;-75
2021/04/13 08:21:16;;;;;;;8.38;4.40;;;16.20;46.60;;;;;;6213722;23;20001;-75
2021/04/13 08:23:42;;;;;;;6.57;3.67;;;16.20;46.50;;;;;;6213619;23;20054;-75
2021/04/13 08:26:34;;;;;;;6.65;3.95;;;16.20;46.70;;;;;;6215662;23;20008;-75
2021/04/13 08:29:14;;;;;;;6.53;3.58;;;16.10;46.50;;;;;;6202170;23;20005;-76
2021/04/13 08:35:01;;;;;;;8.48;4.90;;;16.10;46.30;;;;;;6215388;23;20393;-74
2021/04/13 08:38:06;;;;;;;6.63;3.20;;;16.10;46.20;;;;;;6214677;23;20441;-75
2021/04/13 08:40:36;;;;;;;5.93;3.28;;;16.10;46.20;;;;;;6215620;23;20007;-74
2021/04/13 08:43:08;;;;;;;5.45;3.35;;;16.00;46.10;;;;;;6215498;23;20032;-75
2021/04/13 08:45:46;;;;;;;5.05;3.45;;;16.00;46.10;;;;;;6215341;23;20465;-75
2021/04/13 08:48:29;;;;;;;5.88;2.90;;;16.00;46.00;;;;;;6215216;23;20004;-74
2021/04/13 08:51:07;;;;;;;5.32;2.97;;;16.00;46.00;;;;;;6215452;23;20035;-74
2021/04/13 08:53:39;;;;;;;5.47;2.78;;;16.00;46.00;;;;;;6215419;23;20032;-75
2021/04/13 08:56:09;;;;;;;5.30;3.53;;;15.90;45.90;;;;;;6215352;23;20385;-75
2021/04/13 08:58:46;;;;;;;4.40;2.92;;;15.90;45.90;;;;;;6215005;23;20009;-75
2021/04/13 09:01:23;;;;;;;5.53;3.30;;;15.90;45.80;;;;;;6215440;23;20072;-74
2021/04/13 09:03:49;;;;;;;4.72;2.85;;;15.90;45.80;;;;;;6215314;23;20004;-74
2021/04/13 09:06:40;;;;;;;5.03;2.75;;;15.90;45.90;;;;;;6188591;23;20088;-75
2021/04/13 09:09:11;;;;;;;4.20;2.58;;;15.90;45.90;;;;;;6214919;23;20438;-75
2021/04/13 09:11:57;;;;;;;3.95;2.50;;;15.90;45.80;;;;;;6215377;23;20001;-74
2021/04/13 09:14:36;;;;;;;5.07;2.80;;;15.80;45.80;;;;;;6215233;23;19997;-75
2021/04/13 09:17:12;;;;;;;5.00;2.92;;;15.80;45.80;;;;;;6215412;23;20005;-75
2021/04/13 09:19:53;;;;;;;5.20;2.63;;;15.80;45.80;;;;;;6214709;23;20476;-74
2021/04/13 09:22:31;;;;;;;4.47;2.50;;;15.80;45.80;;;;;;6215131;23;20008;-74
2021/04/13 09:25:15;;;;;;;5.80;3.28;;;15.80;45.80;;;;;;6215384;23;20016;-74
2021/04/13 09:28:00;;;;;;;4.85;2.78;;;15.80;45.90;;;;;;6188071;23;20012;-74
2021/04/13 09:30:39;;;;;;;4.03;2.20;;;15.80;45.90;;;;;;6214949;23;20005;-74
2021/04/13 09:33:32;;;;;;;4.45;2.55;;;15.80;45.90;;;;;;6214902;23;20008;-75
2021/04/13 09:36:13;;;;;;;6.15;3.35;;;15.80;45.90;;;;;;6199669;23;20001;-74
2021/04/13 09:38:48;;;;;;;5.57;2.30;;;15.80;46.00;;;;;;6214921;23;20066;-74
2021/04/13 09:41:42;;;;;;;4.77;2.90;;;15.80;45.90;;;;;;6214917;23;20023;-74
2021/04/13 09:44:42;;;;;;;4.32;2.80;;;15.80;45.90;;;;;;6214625;23;20008;-73
2021/04/13 09:47:36;;;;;;;4.80;2.70;;;15.80;45.80;;;;;;6198757;23;20005;-75
2021/04/13 09:50:40;;;;;;;4.35;2.63;;;15.80;45.90;;;;;;6214890;23;20032;-74
2021/04/13 09:53:21;;;;;;;7.45;3.10;;;15.80;45.80;;;;;;6214891;23;20055;-74
2021/04/13 09:56:20;;;;;;;3.30;2.08;;;15.80;45.80;;;;;;6214820;23;20513;-74
2021/04/13 09:58:49;;;;;;;4.20;2.20;;;15.80;45.70;;;;;;6213761;23;20031;-73
2021/04/13 10:01:34;;;;;;;4.63;2.40;;;15.80;45.70;;;;;;6213972;23;20481;-73
2021/04/13 10:04:53;;;;;;;3.70;2.05;;;15.80;45.70;;;;;;6214940;23;20457;-74
2021/04/13 10:07:18;;;;;;;4.43;2.35;;;15.80;45.60;;;;;;6208779;23;20476;-74
2021/04/13 10:09:45;;;;;;;4.15;2.15;;;15.80;45.60;;;;;;6214460;23;20000;-74
2021/04/13 10:12:32;;;;;;;4.18;2.58;;;15.80;45.60;;;;;;6214576;23;20341;-74
2021/04/13 10:15:25;;;;;;;4.60;2.50;;;15.80;45.90;;;;;;6213896;23;20382;-74
2021/04/13 10:18:13;;;;;;;3.95;2.20;;;15.80;45.80;;;;;;6214113;23;20079;-74
2021/04/13 10:21:04;;;;;;;5.60;1.90;;;15.80;45.90;;;;;;6214317;23;20433;-74
2021/04/13 10:23:48;;;;;;;5.25;2.15;;;16.00;45.90;;;;;;6214334;23;20007;-75
2021/04/13 10:26:25;;;;;;;4.28;2.15;;;16.10;46.00;;;;;;6214392;23;20005;-75
2021/04/13 10:29:09;;;;;;;4.07;2.15;;;16.20;45.90;;;;;;6214000;23;20030;-76
2021/04/13 10:31:35;;;;;;;3.60;1.88;;;16.30;45.80;;;;;;6214610;23;20028;-74
2021/04/13 10:34:15;;;;;;;2.58;1.65;;;16.50;45.80;;;;;;6187359;23;20012;-74
2021/04/13 10:37:05;;;;;;;4.85;1.52;;;16.80;45.50;;;;;;6213812;23;20031;-74
2021/04/13 10:39:59;;;;;;;3.72;1.67;;;16.90;45.50;;;;;;6213984;23;20012;-75
2021/04/13 10:42:58;;;;;;;3.00;1.73;;;17.20;45.60;;;;;;6214178;23;20007;-74
2021/04/13 10:45:37;;;;;;;3.03;1.60;;;17.30;45.50;;;;;;6214224;23;20009;-75
2021/04/13 10:48:42;;;;;;;2.70;1.63;;;17.40;45.40;;;;;;6213618;23;20019;-74
2021/04/13 10:51:26;;;;;;;3.08;1.48;;;17.50;45.40;;;;;;6213882;23;20009;-75
2021/04/13 10:54:12;;;;;;;2.78;1.50;;;17.60;45.50;;;;;;6214175;23;20001;-75
2021/04/13 10:56:50;;;;;;;2.33;1.27;;;17.70;45.50;;;;;;6214279;23;20429;-76
2021/04/13 10:59:53;;;;;;;8.77;4.95;;;17.80;45.40;;;;;;6213957;23;20003;-76
2021/04/13 11:02:34;;;;;;;7.47;4.75;;;18.00;46.00;;;;;;6187369;23;20055;-75
2021/04/13 11:05:17;;;;;;;7.47;3.30;;;18.20;46.10;;;;;;6213971;23;20012;-76
2021/04/13 11:07:54;;;;;;;5.72;3.00;;;18.40;46.00;;;;;;6213955;23;20000;-76
2021/04/13 11:10:38;;;;;;;6.88;2.90;;;18.60;46.10;;;;;;6214232;23;20352;-74
2021/04/13 11:13:06;;;;;;;4.55;2.53;;;18.70;46.00;;;;;;6214490;23;20011;-75
2021/04/13 11:15:41;;;;;;;5.55;3.72;;;18.80;45.90;;;;;;6213842;23;20021;-75
2021/04/13 11:18:43;;;;;;;5.75;3.40;;;18.90;43.70;;;;;;6213606;23;20075;-75
2021/04/13 11:21:42;;;;;;;2.75;1.70;;;19.00;44.30;;;;;;6212742;23;20012;-75
2021/04/13 11:24:50;;;;;;;5.20;2.00;;;19.30;44.40;;;;;;6212852;23;20012;-72
2021/04/13 11:27:37;;;;;;;8.27;1.95;;;19.60;43.80;;;;;;6212930;23;20001;-74
2021/04/13 11:30:40;;;;;;;3.55;1.40;;;19.80;43.20;;;;;;6185908;23;20011;-72
2021/04/13 11:33:43;;;;;;;3.10;1.35;;;20.00;42.80;;;;;;6212993;23;20004;-73
2021/04/13 11:36:24;;;;;;;5.00;1.50;;;20.20;42.70;;;;;;6186012;23;20400;-75
2021/04/13 11:39:10;;;;;;;3.58;1.77;;;20.40;42.40;;;;;;6212442;23;20016;-76
2021/04/13 11:42:00;;;;;;;3.65;1.17;;;20.60;42.50;;;;;;6213119;23;19996;-75
2021/04/13 11:44:46;;;;;;;5.35;1.52;;;20.70;42.30;;;;;;6212718;23;20013;-76
2021/04/13 11:47:31;;;;;;;3.65;1.67;;;20.80;42.40;;;;;;6212303;23;20004;-75
2021/04/13 11:50:26;;;;;;;1.90;1.00;;;21.00;42.20;;;;;;6213958;23;20437;-75
2021/04/13 11:53:04;;;;;;;11.03;1.83;;;21.10;42.20;;;;;;6213702;23;20005;-77
2021/04/13 11:55:31;;;;;;;3.25;1.88;;;21.20;41.40;;;;;;6186792;23;20009;-78
2021/04/13 11:58:09;;;;;;;3.92;1.70;;;21.20;41.20;;;;;;6213263;23;20496;-78
2021/04/13 12:00:34;;;;;;;3.10;1.63;;;21.20;41.50;;;;;;6213913;23;20078;-78
2021/04/13 12:03:17;;;;;;;6.28;1.80;;;21.20;41.50;;;;;;6213582;23;20545;-76
2021/04/13 12:05:49;;;;;;;4.18;1.30;;;21.30;41.50;;;;;;6213667;23;20088;-78
2021/04/13 12:08:40;;;;;;;3.08;1.23;;;21.30;41.40;;;;;;6213566;23;20001;-78
2021/04/13 12:11:07;;;;;;;2.60;1.40;;;21.30;41.40;;;;;;6213876;23;19996;-76
2021/04/13 12:13:49;;;;;;;4.72;1.40;;;21.40;41.40;;;;;;6213347;23;20338;-77
2021/04/13 12:16:44;;;;;;;2.70;1.15;;;21.40;41.40;;;;;;6213194;23;20442;-77
2021/04/13 12:19:17;;;;;;;3.88;1.50;;;21.50;41.40;;;;;;6170517;23;20005;-78
2021/04/13 12:21:53;;;;;;;2.00;1.10;;;21.50;41.40;;;;;;6213748;23;20008;-78
2021/04/13 12:24:41;;;;;;;3.40;1.30;;;21.50;41.80;;;;;;6213605;23;20012;-76
2021/04/13 12:27:25;;;;;;;3.25;1.30;;;21.50;41.40;;;;;;6213100;23;20500;-77
2021/04/13 12:29:52;;;;;;;2.70;1.30;;;21.40;41.40;;;;;;6213517;23;20005;-76
2021/04/13 12:32:17;;;;;;;2.35;1.42;;;21.40;41.60;;;;;;6213267;23;20005;-75
2021/04/13 12:34:57;;;;;;;4.38;1.30;;;21.50;41.60;;;;;;6213529;23;20394;-76
2021/04/13 12:37:45;;;;;;;1.55;0.90;;;21.50;41.20;;;;;;6213305;23;20015;-73
2021/04/13 12:40:16;;;;;;;3.03;1.30;;;21.60;41.00;;;;;;6213932;23;20008;-75
2021/04/13 12:42:53;;;;;;;1.80;1.00;;;21.60;40.90;;;;;;6213604;23;20054;-71
2021/04/13 12:45:19;;;;;;;2.28;1.00;;;21.50;40.90;;;;;;6213191;23;20008;-75
2021/04/13 12:47:46;;;;;;;1.65;0.90;;;21.60;40.90;;;;;;6213568;23;20001;-74
2021/04/13 12:50:32;;;;;;;1.70;0.95;;;21.60;40.80;;;;;;6213777;23;20007;-74
2021/04/13 12:52:59;;;;;;;2.65;1.10;;;21.60;40.90;;;;;;6212804;23;20421;-75
2021/04/13 12:55:26;;;;;;;2.75;1.30;;;21.50;40.90;;;;;;6213369;23;20005;-76
2021/04/13 12:58:01;;;;;;;3.30;1.40;;;21.50;40.70;;;;;;6186692;23;20051;-76
2021/04/13 13:00:44;;;;;;;1.77;0.90;;;21.50;40.70;;;;;;6212853;23;20071;-75
2021/04/13 13:03:32;;;;;;;1.88;0.77;;;21.50;40.80;;;;;;6213449;23;20087;-76
2021/04/13 13:05:58;;;;;;;3.67;1.23;;;21.50;40.70;;;;;;6213372;23;20016;-76
2021/04/13 13:08:29;;;;;;;2.65;1.13;;;21.50;40.70;;;;;;6213039;23;20005;-76
2021/04/13 13:11:06;;;;;;;2.63;0.95;;;21.50;40.70;;;;;;6187718;23;20032;-74
2021/04/13 13:13:35;;;;;;;3.35;1.08;;;21.50;40.70;;;;;;6214838;23;20001;-74
2021/04/13 13:16:11;;;;;;;2.50;0.90;;;21.50;40.60;;;;;;6214737;23;20008;-77
2021/04/13 13:18:42;;;;;;;2.00;1.08;;;21.40;40.70;;;;;;6215144;23;20001;-75
2021/04/13 13:21:11;;;;;;;1.80;1.10;;;21.40;40.70;;;;;;6187869;23;20345;-76
2021/04/13 13:23:43;;;;;;;2.25;1.10;;;21.40;40.70;;;;;;6215022;23;20084;-73
2021/04/13 13:26:16;;;;;;;2.05;1.10;;;21.30;40.80;;;;;;6215174;23;20055;-75
2021/04/13 13:28:45;;;;;;;3.08;1.27;;;21.10;40.90;;;;;;6215167;23;20059;-76
2021/04/13 13:31:15;;;;;;;4.70;1.52;;;21.10;41.00;;;;;;6214859;23;20009;-77
2021/04/13 13:33:42;;;;;;;2.63;1.00;;;21.10;41.00;;;;;;6215117;23;20084;-77